createdAt,value
2022-11-18T00:00:58.053Z,25.27
2022-11-18T00:03:25.538Z,28.08
2022-11-18T00:05:56.177Z,23.95
2022-11-18T00:08:25.995Z,25.23
2022-11-18T00:10:53.989Z,26.52
2022-11-18T00:13:39.373Z,24.33
2022-11-18T00:16:07.811Z,26.08
2022-11-18T00:18:35.284Z,23.55
2022-11-18T00:21:03.328Z,26.33
2022-11-18T00:23:32.310Z,26.52
2022-11-18T00:26:02.703Z,28.08
2022-11-18T00:28:30.432Z,25.85
2022-11-18T00:31:01.551Z,23.40
2022-11-18T00:33:28.993Z,25.65
2022-11-18T00:35:56.512Z,27.70
2022-11-18T00:38:24.107Z,27.23
2022-11-18T00:40:59.319Z,28.55
2022-11-18T00:43:25.865Z,28.20
2022-11-18T00:45:53.323Z,25.92
2022-11-18T00:48:21.940Z,26.48
2022-11-18T00:50:49.802Z,27.00
2022-11-18T00:53:17.309Z,26.15
2022-11-18T00:55:44.755Z,28.98
2022-11-18T00:58:15.079Z,24.50
2022-11-18T01:00:42.899Z,29.48
2022-11-18T01:03:10.828Z,24.02
2022-11-18T01:05:38.777Z,25.05
2022-11-18T01:08:07.336Z,26.58
2022-11-18T01:10:35.155Z,26.70
2022-11-18T01:13:19.483Z,27.42
2022-11-18T01:15:49.199Z,25.55
2022-11-18T01:18:16.896Z,23.67
2022-11-18T01:20:44.892Z,28.73
2022-11-18T01:23:12.675Z,25.60
2022-11-18T01:25:41.478Z,23.75
2022-11-18T01:28:09.232Z,24.23
2022-11-18T01:30:37.065Z,25.77
2022-11-18T01:33:06.254Z,25.02
2022-11-18T01:35:35.393Z,23.48
2022-11-18T01:38:03.022Z,20.42
2022-11-18T01:40:30.577Z,23.83
2022-11-18T01:42:58.225Z,23.63
2022-11-18T01:45:27.515Z,21.02
2022-11-18T01:47:59.160Z,20.17
2022-11-18T01:50:28.771Z,19.23
2022-11-18T01:53:06.839Z,20.00
2022-11-18T01:58:04.290Z,19.23
2022-11-18T02:00:31.727Z,19.50
2022-11-18T02:02:59.848Z,19.98
2022-11-18T02:05:29.054Z,20.92
2022-11-18T02:07:56.555Z,20.75
2022-11-18T02:10:25.062Z,18.50
2022-11-18T02:12:53.532Z,18.38
2022-11-18T02:15:24.109Z,16.92
2022-11-18T02:17:56.350Z,21.38
2022-11-18T02:20:33.021Z,20.98
2022-11-18T02:23:21.948Z,19.13
2022-11-18T02:25:56.178Z,22.15
2022-11-18T02:28:33.385Z,21.23
2022-11-18T02:31:04.532Z,23.60
2022-11-18T02:33:35.663Z,20.60
2022-11-18T02:36:07.183Z,22.38
2022-11-18T02:41:05.271Z,21.20
2022-11-18T02:43:35.001Z,20.40
2022-11-18T02:46:07.540Z,20.45
2022-11-18T02:48:37.118Z,23.58
2022-11-18T02:51:06.008Z,22.23
2022-11-18T02:53:34.119Z,22.25
2022-11-18T02:56:02.609Z,23.30
2022-11-18T02:58:30.151Z,22.20
2022-11-18T03:00:58.426Z,24.17
2022-11-18T03:03:28.993Z,21.58
2022-11-18T03:06:02.886Z,20.48
2022-11-18T03:08:32.804Z,20.83
2022-11-18T03:11:05.487Z,21.52
2022-11-18T03:13:36.516Z,21.13
2022-11-18T03:16:06.373Z,21.90
2022-11-18T03:18:40.168Z,20.92
2022-11-18T03:21:09.226Z,20.85
2022-11-18T03:23:38.826Z,19.58
2022-11-18T03:26:08.369Z,19.02
2022-11-18T03:28:37.895Z,20.23
2022-11-18T03:31:09.584Z,20.85
2022-11-18T03:33:40.683Z,21.27
2022-11-18T03:36:10.598Z,20.75
2022-11-18T03:38:39.577Z,21.73
2022-11-18T03:41:09.512Z,21.42
2022-11-18T03:43:39.207Z,20.77
2022-11-18T03:46:08.111Z,24.02
2022-11-18T03:48:37.057Z,23.58
2022-11-18T03:51:07.741Z,23.05
2022-11-18T03:53:37.425Z,24.67
2022-11-18T03:56:12.748Z,22.13
2022-11-18T03:58:47.667Z,23.80
2022-11-18T04:01:17.328Z,23.80
2022-11-18T04:03:45.219Z,25.20
2022-11-18T04:06:17.738Z,22.90
2022-11-18T04:08:47.724Z,25.80
2022-11-18T04:11:37.029Z,21.77
2022-11-18T04:14:05.418Z,23.20
2022-11-18T04:16:39.193Z,25.08
2022-11-18T04:19:06.763Z,22.13
2022-11-18T04:21:35.607Z,22.85
2022-11-18T04:24:03.298Z,27.88
2022-11-18T04:26:32.340Z,23.73
2022-11-18T04:29:00.012Z,25.13
2022-11-18T04:31:27.725Z,21.80
2022-11-18T04:33:55.223Z,26.73
2022-11-18T04:36:22.700Z,25.27
2022-11-18T04:38:51.525Z,24.95
2022-11-18T04:41:19.042Z,23.38
2022-11-18T04:43:46.509Z,28.67
2022-11-18T04:46:13.969Z,25.35
2022-11-18T04:48:41.513Z,28.52
2022-11-18T04:51:08.988Z,26.77
2022-11-18T04:53:36.472Z,27.55
2022-11-18T04:56:08.814Z,29.58
2022-11-18T04:58:36.336Z,31.52
2022-11-18T05:01:03.880Z,29.75
2022-11-18T05:03:31.436Z,31.33
2022-11-18T05:06:02.092Z,32.85
2022-11-18T05:08:29.544Z,32.78
2022-11-18T05:11:17.010Z,33.92
2022-11-18T05:13:44.851Z,31.80
2022-11-18T05:16:12.367Z,35.25
2022-11-18T05:18:39.919Z,31.95
2022-11-18T05:21:07.667Z,37.30
2022-11-18T05:23:35.118Z,32.50
2022-11-18T05:26:03.965Z,33.25
2022-11-18T05:28:31.477Z,32.22
2022-11-18T05:31:00.355Z,33.80
2022-11-18T05:33:27.809Z,36.72
2022-11-18T05:35:55.476Z,31.70
2022-11-18T05:38:23.001Z,33.65
2022-11-18T05:40:50.532Z,35.97
2022-11-18T05:43:16.991Z,33.90
2022-11-18T05:45:44.810Z,32.88
2022-11-18T05:48:13.682Z,36.67
2022-11-18T05:50:41.149Z,36.55
2022-11-18T05:53:08.606Z,32.10
2022-11-18T05:55:38.348Z,32.65
2022-11-18T05:58:05.846Z,33.30
2022-11-18T06:00:33.661Z,31.70
2022-11-18T06:03:01.493Z,30.98
2022-11-18T06:05:30.345Z,32.25
2022-11-18T06:07:58.837Z,29.08
2022-11-18T06:10:28.323Z,29.63
2022-11-18T06:12:57.721Z,28.52
2022-11-18T06:15:26.136Z,29.88
2022-11-18T06:17:54.600Z,26.10
2022-11-18T06:20:22.472Z,26.02
2022-11-18T06:22:53.360Z,27.58
2022-11-18T06:25:20.974Z,27.25
2022-11-18T06:27:49.872Z,26.25
2022-11-18T06:30:18.427Z,26.13
2022-11-18T06:32:45.949Z,23.85
2022-11-18T06:35:13.444Z,25.40
2022-11-18T06:37:40.987Z,27.05
2022-11-18T06:40:10.894Z,24.42
2022-11-18T06:42:56.045Z,24.98
2022-11-18T06:45:23.702Z,24.08
2022-11-18T06:47:50.266Z,23.10
2022-11-18T06:50:17.818Z,23.73
2022-11-18T06:52:45.350Z,23.85
2022-11-18T06:55:14.240Z,21.10
2022-11-18T06:57:41.734Z,23.05
2022-11-18T07:00:09.854Z,24.08
2022-11-18T07:02:37.305Z,25.17
2022-11-18T07:05:04.913Z,24.33
2022-11-18T07:07:35.339Z,24.83
2022-11-18T07:10:05.414Z,23.77
2022-11-18T07:12:34.245Z,25.42
2022-11-18T07:15:01.691Z,22.83
2022-11-18T07:17:30.636Z,24.83
2022-11-18T07:19:58.137Z,25.15
2022-11-18T07:22:25.698Z,24.80
2022-11-18T07:24:53.253Z,24.38
2022-11-18T07:27:20.753Z,25.30
2022-11-18T07:29:49.580Z,26.50
2022-11-18T07:32:17.096Z,25.42
2022-11-18T07:34:45.071Z,24.45
2022-11-18T07:37:12.544Z,21.90
2022-11-18T07:39:39.987Z,24.58
2022-11-18T07:42:07.479Z,23.83
2022-11-18T07:44:35.037Z,24.13
2022-11-18T07:47:03.900Z,22.30
2022-11-18T07:49:31.384Z,23.42
2022-11-18T07:51:58.869Z,22.77
2022-11-18T07:54:26.368Z,23.40
2022-11-18T07:56:53.826Z,21.08
2022-11-18T07:59:21.397Z,21.02
2022-11-18T08:01:49.155Z,20.63
2022-11-18T08:04:18.052Z,22.88
2022-11-18T08:06:45.568Z,21.80
2022-11-18T08:09:13.186Z,19.48
2022-11-18T08:11:41.173Z,20.52
2022-11-18T08:14:08.641Z,22.90
2022-11-18T08:16:36.144Z,21.27
2022-11-18T08:19:03.645Z,24.70
2022-11-18T08:21:32.543Z,21.65
2022-11-18T08:24:00.069Z,22.38
2022-11-18T08:26:27.946Z,22.55
2022-11-18T08:28:55.632Z,22.67
2022-11-18T08:31:24.695Z,25.30
2022-11-18T08:33:55.301Z,24.73
2022-11-18T08:36:23.736Z,26.27
2022-11-18T08:38:52.781Z,20.23
2022-11-18T08:41:22.378Z,25.27
2022-11-18T08:43:49.845Z,21.60
2022-11-18T08:46:17.365Z,20.23
2022-11-18T08:48:44.871Z,20.27
2022-11-18T08:51:12.916Z,19.52
2022-11-18T08:53:40.415Z,20.27
2022-11-18T08:56:13.744Z,19.58
2022-11-18T08:58:41.540Z,19.10
2022-11-18T09:01:09.263Z,18.58
2022-11-18T09:03:37.017Z,21.65
2022-11-18T09:06:09.031Z,18.38
2022-11-18T09:08:36.522Z,19.77
2022-11-18T09:11:06.225Z,22.92
2022-11-18T09:16:27.675Z,19.02
2022-11-18T09:18:56.250Z,19.45
2022-11-18T09:21:23.914Z,20.60
2022-11-18T09:23:51.391Z,16.90
2022-11-18T09:26:20.801Z,20.25
2022-11-18T09:28:49.632Z,20.35
2022-11-18T09:31:17.898Z,21.83
2022-11-18T09:33:45.666Z,19.42
2022-11-18T09:36:13.987Z,22.90
2022-11-18T09:38:41.476Z,19.38
2022-11-18T09:41:16.586Z,25.55
2022-11-18T09:43:49.382Z,19.02
2022-11-18T09:46:23.417Z,17.90
2022-11-18T09:49:09.049Z,17.10
2022-11-18T09:51:39.135Z,17.83
2022-11-18T09:54:09.498Z,17.85
2022-11-18T09:56:37.102Z,16.05
2022-11-18T09:59:04.995Z,17.02
2022-11-18T10:01:33.993Z,17.85
2022-11-18T10:04:01.735Z,16.98
2022-11-18T10:06:30.320Z,16.02
2022-11-18T10:09:02.222Z,14.57
2022-11-18T10:11:35.084Z,12.68
2022-11-18T10:14:09.802Z,11.57
2022-11-18T10:16:42.122Z,12.98
2022-11-18T10:19:12.961Z,10.95
2022-11-18T10:21:48.034Z,11.88
2022-11-18T10:24:17.987Z,10.65
2022-11-18T10:26:45.696Z,9.68
2022-11-18T10:29:13.231Z,10.57
2022-11-18T10:31:54.234Z,11.45
2022-11-18T10:34:23.040Z,10.57
2022-11-18T10:36:59.541Z,14.57
2022-11-18T10:39:27.041Z,13.75
2022-11-18T10:41:55.708Z,11.52
2022-11-18T10:44:30.383Z,11.68
2022-11-18T10:47:15.567Z,11.88
2022-11-18T10:49:43.315Z,13.18
2022-11-18T10:52:11.621Z,14.07
2022-11-18T10:54:39.397Z,12.30
2022-11-18T10:57:07.944Z,10.95
2022-11-18T10:59:37.547Z,12.73
2022-11-18T11:02:15.264Z,11.20
2022-11-18T11:04:43.159Z,11.10
2022-11-18T11:07:18.621Z,11.05
2022-11-18T11:09:46.363Z,11.18
2022-11-18T11:12:15.805Z,10.85
2022-11-18T11:14:46.564Z,9.25
2022-11-18T11:17:16.648Z,10.45
2022-11-18T11:19:51.993Z,10.05
2022-11-18T11:22:19.521Z,9.38
2022-11-18T11:24:47.041Z,11.65
2022-11-18T11:30:16.051Z,12.60
2022-11-18T11:33:10.092Z,10.70
2022-11-18T11:35:41.710Z,10.30
2022-11-18T11:38:14.641Z,10.35
2022-11-18T11:40:53.246Z,10.18
2022-11-18T11:43:25.227Z,10.20
2022-11-18T11:46:01.025Z,11.95
2022-11-18T11:48:36.780Z,11.73
2022-11-18T11:51:08.390Z,11.65
2022-11-18T11:53:47.478Z,13.93
2022-11-18T11:56:22.762Z,11.15
2022-11-18T11:58:59.169Z,10.20
2022-11-18T12:01:32.270Z,12.15
2022-11-18T12:04:06.950Z,11.10
2022-11-18T12:06:34.576Z,9.88
2022-11-18T12:09:06.026Z,11.23
2022-11-18T12:14:05.065Z,9.75
2022-11-18T12:16:37.426Z,9.40
2022-11-18T12:19:09.673Z,24.85
2022-11-18T12:21:56.293Z,15.23
2022-11-18T12:24:31.100Z,10.88
2022-11-18T12:26:59.323Z,10.85
2022-11-18T12:29:28.533Z,10.38
2022-11-18T12:31:56.966Z,10.25
2022-11-18T12:34:31.743Z,10.18
2022-11-18T12:37:19.245Z,9.32
2022-11-18T12:39:48.237Z,9.98
2022-11-18T12:42:51.838Z,8.93
2022-11-18T12:45:37.938Z,9.00
2022-11-18T12:48:05.725Z,9.30
2022-11-18T12:53:37.867Z,8.27
2022-11-18T12:56:12.309Z,8.98
2022-11-18T12:58:45.198Z,7.82
2022-11-18T13:01:13.316Z,10.35
2022-11-18T13:03:41.070Z,9.30
2022-11-18T13:06:15.935Z,7.75
2022-11-18T13:08:44.928Z,6.82
2022-11-18T13:11:42.118Z,6.35
2022-11-18T13:14:32.365Z,7.85
2022-11-18T13:17:28.445Z,6.10
2022-11-18T13:19:57.211Z,7.90
2022-11-18T13:22:42.041Z,10.25
2022-11-18T13:25:24.680Z,7.75
2022-11-18T13:27:55.434Z,6.32
2022-11-18T13:30:22.948Z,5.88
2022-11-18T13:32:51.163Z,6.55
2022-11-18T13:35:20.037Z,5.97
2022-11-18T13:37:52.178Z,7.00
2022-11-18T13:40:20.738Z,6.32
2022-11-18T13:42:49.604Z,6.13
2022-11-18T13:45:17.253Z,5.05
2022-11-18T13:47:47.174Z,4.72
2022-11-18T13:50:18.020Z,4.65
2022-11-18T13:52:46.734Z,5.00
2022-11-18T13:55:19.720Z,7.65
2022-11-18T13:57:49.696Z,4.38
2022-11-18T14:00:21.847Z,4.40
2022-11-18T14:02:54.650Z,5.60
2022-11-18T14:05:22.262Z,4.85
2022-11-18T14:07:57.640Z,4.60
2022-11-18T14:10:33.050Z,5.97
2022-11-18T14:15:40.695Z,6.18
2022-11-18T14:18:17.804Z,5.75
2022-11-18T14:20:50.716Z,5.90
2022-11-18T14:23:18.806Z,6.45
2022-11-18T14:25:46.276Z,6.43
2022-11-18T14:28:20.010Z,6.45
2022-11-18T14:30:57.977Z,6.25
2022-11-18T14:33:25.860Z,6.75
2022-11-18T14:35:55.352Z,5.93
2022-11-18T14:38:48.063Z,6.13
2022-11-18T14:41:12.570Z,6.15
2022-11-18T14:43:40.050Z,5.70
2022-11-18T14:46:13.533Z,6.45
2022-11-18T14:48:41.022Z,5.82
2022-11-18T14:51:11.234Z,6.35
2022-11-18T14:53:38.693Z,5.53
2022-11-18T14:56:12.594Z,6.85
2022-11-18T14:58:40.045Z,6.53
2022-11-18T15:01:10.963Z,9.20
2022-11-18T15:03:38.474Z,5.22
2022-11-18T15:06:07.652Z,6.55
2022-11-18T15:08:35.077Z,7.13
2022-11-18T15:11:02.531Z,4.38
2022-11-18T15:13:30.015Z,4.65
2022-11-18T15:15:57.496Z,7.85
2022-11-18T15:18:26.445Z,6.65
2022-11-18T15:20:53.915Z,7.32
2022-11-18T15:23:25.717Z,5.78
2022-11-18T15:25:56.051Z,5.78
2022-11-18T15:28:23.493Z,5.85
2022-11-18T15:30:50.959Z,4.82
2022-11-18T15:33:18.469Z,5.97
2022-11-18T15:35:47.283Z,5.28
2022-11-18T15:38:14.980Z,5.15
2022-11-18T15:40:43.220Z,6.18
2022-11-18T15:43:10.712Z,6.07
2022-11-18T15:45:38.128Z,6.35
2022-11-18T15:48:05.892Z,5.43
2022-11-18T15:50:33.340Z,5.72
2022-11-18T15:53:02.189Z,7.25
2022-11-18T15:55:29.723Z,6.15
2022-11-18T15:57:57.218Z,6.85
2022-11-18T16:00:24.707Z,6.65
2022-11-18T16:02:52.154Z,7.00
2022-11-18T16:05:19.666Z,8.18
2022-11-18T16:07:52.795Z,6.57
2022-11-18T16:10:40.917Z,9.07
2022-11-18T16:13:08.362Z,7.03
2022-11-18T16:15:46.742Z,6.25
2022-11-18T16:18:14.656Z,8.18
2022-11-18T16:20:42.077Z,6.75
2022-11-18T16:23:09.546Z,7.82
2022-11-18T16:25:43.637Z,6.22
2022-11-18T16:28:11.092Z,6.32
2022-11-18T16:30:55.992Z,7.50
2022-11-18T16:35:50.835Z,6.57
2022-11-18T16:38:18.286Z,5.50
2022-11-18T16:40:47.145Z,6.10
2022-11-18T16:43:14.662Z,6.20
2022-11-18T16:45:42.202Z,6.78
2022-11-18T16:48:09.646Z,7.72
2022-11-18T16:50:37.066Z,7.50
2022-11-18T16:53:04.697Z,6.18
2022-11-18T16:55:32.205Z,8.00
2022-11-18T16:58:01.069Z,6.22
2022-11-18T17:00:59.929Z,8.10
2022-11-18T17:03:16.037Z,7.53
2022-11-18T17:05:43.500Z,9.60
2022-11-18T17:08:11.009Z,38.47
2022-11-18T17:10:38.473Z,92.53
2022-11-18T17:13:07.328Z,122.88
2022-11-18T17:15:36.299Z,97.72
2022-11-18T17:18:03.741Z,55.58
2022-11-18T17:20:31.211Z,34.15
2022-11-18T17:22:58.812Z,25.25
2022-11-18T17:25:26.265Z,16.92
2022-11-18T17:27:53.697Z,17.23
2022-11-18T17:30:22.506Z,16.65
2022-11-18T17:32:50.846Z,17.13
2022-11-18T17:35:18.346Z,17.90
2022-11-18T17:37:45.896Z,16.30
2022-11-18T17:40:14.061Z,11.98
2022-11-18T17:42:41.506Z,15.27
2022-11-18T17:45:09.823Z,14.75
2022-11-18T17:47:38.680Z,8.40
2022-11-18T17:50:06.557Z,11.13
2022-11-18T17:52:34.004Z,10.23
2022-11-18T17:55:01.548Z,11.20
2022-11-18T17:57:29.057Z,11.60
2022-11-18T17:59:56.575Z,10.90
2022-11-18T18:02:24.090Z,12.43
2022-11-18T18:04:52.922Z,10.63
2022-11-18T18:07:20.414Z,10.30
2022-11-18T18:09:47.921Z,13.18
2022-11-18T18:12:32.773Z,11.82
2022-11-18T18:15:00.290Z,12.45
2022-11-18T18:17:27.806Z,9.18
2022-11-18T18:19:56.718Z,12.20
2022-11-18T18:22:24.268Z,9.68
2022-11-18T18:24:51.776Z,10.43
2022-11-18T18:27:19.298Z,9.48
2022-11-18T18:29:46.786Z,11.82
2022-11-18T18:32:14.472Z,14.02
2022-11-18T18:34:41.961Z,19.30
2022-11-18T18:37:10.778Z,19.63
2022-11-18T18:39:38.259Z,18.17
2022-11-18T18:42:05.842Z,20.00
2022-11-18T18:44:47.178Z,20.88
2022-11-18T18:47:14.684Z,15.20
2022-11-18T18:49:42.208Z,14.00
2022-11-18T18:52:11.429Z,17.75
2022-11-18T18:54:38.978Z,13.60
2022-11-18T18:57:06.468Z,13.35
2022-11-18T18:59:34.280Z,11.00
2022-11-18T19:02:01.797Z,13.27
2022-11-18T19:04:29.341Z,11.27
2022-11-18T19:06:59.868Z,12.60
2022-11-18T19:09:29.466Z,10.35
2022-11-18T19:12:14.972Z,11.57
2022-11-18T19:14:42.547Z,11.85
2022-11-18T19:20:15.041Z,11.40
2022-11-18T19:22:42.554Z,14.35
2022-11-18T19:25:11.656Z,13.20
2022-11-18T19:27:40.358Z,13.82
2022-11-18T19:30:08.866Z,14.70
2022-11-18T19:32:36.531Z,14.82
2022-11-18T19:35:04.241Z,17.33
2022-11-18T19:37:31.834Z,12.13
2022-11-18T19:40:05.674Z,12.80
2022-11-18T19:42:37.959Z,15.15
2022-11-18T19:45:05.968Z,16.02
2022-11-18T19:47:33.469Z,13.38
2022-11-18T19:50:01.506Z,15.77
2022-11-18T19:52:29.279Z,18.02
2022-11-18T19:54:58.001Z,16.60
2022-11-18T19:57:25.492Z,18.75
2022-11-18T19:59:54.981Z,14.82
2022-11-18T20:02:22.481Z,12.30
2022-11-18T20:05:03.896Z,13.45
2022-11-18T20:07:31.520Z,14.70
2022-11-18T20:09:59.161Z,17.15
2022-11-18T20:12:26.648Z,12.90
2022-11-18T20:14:55.599Z,14.38
2022-11-18T20:17:23.898Z,15.25
2022-11-18T20:19:51.405Z,14.35
2022-11-18T20:22:18.916Z,14.63
2022-11-18T20:24:46.398Z,20.35
2022-11-18T20:27:15.954Z,15.20
2022-11-18T20:29:43.642Z,14.98
2022-11-18T20:32:12.488Z,17.05
2022-11-18T20:34:40.137Z,16.98
2022-11-18T20:37:07.606Z,18.50
2022-11-18T20:39:35.157Z,12.90
2022-11-18T20:42:19.977Z,16.13
2022-11-18T20:44:47.436Z,14.27
2022-11-18T20:47:16.404Z,16.60
2022-11-18T20:49:43.844Z,32.95
2022-11-18T20:52:11.320Z,24.38
2022-11-18T20:54:38.887Z,20.00
2022-11-18T20:57:06.377Z,22.05
2022-11-18T20:59:33.890Z,17.60
2022-11-18T21:02:01.950Z,21.52
2022-11-18T21:04:30.798Z,22.17
2022-11-18T21:07:01.433Z,25.15
2022-11-18T21:09:31.657Z,19.95
2022-11-18T21:11:59.307Z,31.90
2022-11-18T21:14:25.954Z,30.27
2022-11-18T21:16:55.065Z,25.02
2022-11-18T21:19:22.926Z,29.88
2022-11-18T21:21:52.645Z,21.77
2022-11-18T21:24:21.375Z,22.50
2022-11-18T21:26:49.780Z,24.67
2022-11-18T21:29:18.214Z,25.90
2022-11-18T21:31:46.915Z,24.35
2022-11-18T21:34:15.648Z,21.98
2022-11-18T21:36:46.924Z,21.33
2022-11-18T21:39:17.167Z,24.58
2022-11-18T21:41:44.979Z,24.40
2022-11-18T21:44:13.123Z,26.15
2022-11-18T21:46:41.787Z,18.20
2022-11-18T21:49:09.581Z,23.38
2022-11-18T21:51:37.701Z,23.88
2022-11-18T21:54:05.329Z,22.13
2022-11-18T21:56:34.162Z,28.27
2022-11-18T21:59:02.229Z,30.70
2022-11-18T22:01:30.688Z,26.95
2022-11-18T22:03:59.213Z,27.30
2022-11-18T22:06:29.628Z,25.95
2022-11-18T22:08:57.240Z,31.33
2022-11-18T22:11:25.620Z,26.08
2022-11-18T22:13:54.514Z,24.67
2022-11-18T22:16:23.257Z,26.67
2022-11-18T22:18:56.664Z,23.50
2022-11-18T22:21:27.044Z,26.38
2022-11-18T22:23:58.015Z,31.08
2022-11-18T22:26:25.490Z,28.45
2022-11-18T22:28:54.951Z,22.70
2022-11-18T22:31:23.158Z,22.92
2022-11-18T22:33:50.987Z,23.48
2022-11-18T22:36:19.170Z,25.33
2022-11-18T22:38:46.865Z,25.30
2022-11-18T22:41:35.356Z,19.90
2022-11-18T22:44:07.370Z,23.95
2022-11-18T22:46:35.632Z,23.85
2022-11-18T22:49:03.238Z,20.38
2022-11-18T22:51:30.866Z,19.77
2022-11-18T22:54:22.800Z,18.35
2022-11-18T22:56:45.898Z,20.98
2022-11-18T22:59:15.074Z,21.75
2022-11-18T23:01:42.604Z,27.13
2022-11-18T23:04:10.121Z,31.70
2022-11-18T23:06:37.597Z,43.47
2022-11-18T23:09:05.131Z,74.68
2022-11-18T23:11:50.174Z,72.75
2022-11-18T23:14:18.989Z,56.92
2022-11-18T23:16:46.447Z,60.83
2022-11-18T23:19:14.923Z,59.25
2022-11-18T23:21:42.655Z,25.92
2022-11-18T23:24:11.667Z,23.52
2022-11-18T23:26:39.525Z,27.00
2022-11-18T23:29:07.028Z,22.15
2022-11-18T23:31:35.881Z,16.90
2022-11-18T23:34:03.505Z,15.75
2022-11-18T23:36:30.945Z,12.00
2022-11-18T23:38:58.749Z,20.42
2022-11-18T23:41:26.268Z,17.73
2022-11-18T23:43:54.164Z,11.50
2022-11-18T23:46:21.755Z,15.30
2022-11-18T23:48:50.606Z,18.80
2022-11-18T23:51:18.917Z,16.77
2022-11-18T23:53:47.865Z,15.73
2022-11-18T23:56:16.383Z,17.98
2022-11-18T23:58:45.524Z,16.75
